createdAt,value
2022-11-10T00:07:13.879Z,7.90
2022-11-10T00:17:16.491Z,7.96
2022-11-10T00:27:19.323Z,8.01
2022-11-10T00:37:21.884Z,7.98
2022-11-10T00:47:24.445Z,7.91
2022-11-10T00:57:27.103Z,7.87
2022-11-10T01:07:29.944Z,7.88
2022-11-10T01:17:33.038Z,7.86
2022-11-10T01:27:35.939Z,7.85
2022-11-10T01:37:40.153Z,7.83
2022-11-10T01:47:42.776Z,7.84
2022-11-10T01:57:45.707Z,7.93
2022-11-10T02:07:48.642Z,8.02
2022-11-10T02:17:51.537Z,8.11
2022-11-10T02:27:54.151Z,8.18
2022-11-10T02:37:57.063Z,8.24
2022-11-10T02:47:59.613Z,8.28
2022-11-10T02:58:02.351Z,8.30
2022-11-10T03:08:05.055Z,8.29
2022-11-10T03:18:08.291Z,8.30
2022-11-10T03:28:11.202Z,8.34
2022-11-10T03:38:13.787Z,8.40
2022-11-10T03:48:16.432Z,8.44
2022-11-10T03:58:19.019Z,8.39
2022-11-10T04:08:39.892Z,8.37
2022-11-10T04:18:42.421Z,8.39
2022-11-10T04:28:44.483Z,8.41
2022-11-10T04:38:47.458Z,8.42
2022-11-10T04:48:50.455Z,8.41
2022-11-10T04:58:53.762Z,8.43
2022-11-10T05:08:56.377Z,8.44
2022-11-10T05:18:59.089Z,8.43
2022-11-10T05:29:01.724Z,8.40
2022-11-10T05:39:04.431Z,8.34
2022-11-10T05:49:07.013Z,8.32
2022-11-10T05:59:09.331Z,8.29
2022-11-10T06:09:12.010Z,8.37
2022-11-10T06:19:13.975Z,8.45
2022-11-10T06:29:16.591Z,8.50
2022-11-10T06:39:19.310Z,8.60
2022-11-10T06:49:21.883Z,8.68
2022-11-10T06:59:24.491Z,8.70
2022-11-10T07:09:27.088Z,8.70
2022-11-10T07:19:31.973Z,8.79
2022-11-10T07:29:34.753Z,8.89
2022-11-10T07:39:37.296Z,8.95
2022-11-10T07:59:41.887Z,9.05
2022-11-10T08:09:45.198Z,9.11
2022-11-10T08:19:48.110Z,9.27
2022-11-10T08:29:50.681Z,9.56
2022-11-10T08:39:53.467Z,9.88
2022-11-10T08:49:56.141Z,10.43
2022-11-10T08:59:58.798Z,10.92
2022-11-10T09:10:07.235Z,11.04
2022-11-10T09:20:12.076Z,11.39
2022-11-10T09:30:19.249Z,11.55
2022-11-10T09:40:21.772Z,11.87
2022-11-10T09:50:24.588Z,11.99
2022-11-10T10:00:31.077Z,11.86
2022-11-10T10:10:33.484Z,11.88
2022-11-10T10:20:41.656Z,12.09
2022-11-10T10:30:44.870Z,12.24
2022-11-10T10:40:49.364Z,12.40
2022-11-10T10:50:51.966Z,12.59
2022-11-10T11:00:54.606Z,12.43
2022-11-10T11:11:06.127Z,12.27
2022-11-10T11:21:08.674Z,12.50
2022-11-10T11:31:11.186Z,12.57
2022-11-10T11:41:13.690Z,12.75
2022-11-10T11:51:15.696Z,12.93
2022-11-10T12:01:23.386Z,12.92
2022-11-10T12:11:25.541Z,12.71
2022-11-10T12:21:27.650Z,12.81
2022-11-10T12:31:32.638Z,12.88
2022-11-10T12:41:34.838Z,12.76
2022-11-10T12:51:39.118Z,12.62
2022-11-10T13:01:43.499Z,12.54
2022-11-10T13:12:03.005Z,12.38
2022-11-10T13:22:09.344Z,12.33
2022-11-10T13:32:24.427Z,12.27
2022-11-10T13:42:27.267Z,12.25
2022-11-10T13:52:29.649Z,12.19
2022-11-10T14:02:49.637Z,12.09
2022-11-10T14:12:55.944Z,11.87
2022-11-10T14:22:59.594Z,11.73
2022-11-10T14:43:05.891Z,11.25
2022-11-10T14:53:13.874Z,11.00
2022-11-10T15:03:19.635Z,10.79
2022-11-10T15:13:23.964Z,10.65
2022-11-10T15:23:33.567Z,10.52
2022-11-10T15:33:36.128Z,10.31
2022-11-10T15:43:39.316Z,10.10
2022-11-10T15:53:43.457Z,9.93
2022-11-10T16:03:46.507Z,9.71
2022-11-10T16:13:50.414Z,9.51
2022-11-10T16:23:53.334Z,9.43
2022-11-10T16:33:56.015Z,9.37
2022-11-10T16:43:58.716Z,9.30
2022-11-10T16:54:01.344Z,9.17
2022-11-10T17:04:04.886Z,9.04
2022-11-10T17:14:09.039Z,8.92
2022-11-10T17:24:11.647Z,8.81
2022-11-10T17:34:14.310Z,8.70
2022-11-10T17:44:17.557Z,8.53
2022-11-10T17:54:20.154Z,8.33
2022-11-10T18:04:22.784Z,8.18
2022-11-10T18:14:25.708Z,8.02
2022-11-10T18:24:28.368Z,7.93
2022-11-10T18:34:31.119Z,7.84
2022-11-10T18:44:34.315Z,7.78
2022-11-10T18:54:37.002Z,7.70
2022-11-10T19:04:39.943Z,7.62
2022-11-10T19:14:42.618Z,7.51
2022-11-10T19:25:06.659Z,7.43
2022-11-10T19:35:06.955Z,7.38
2022-11-10T19:45:08.968Z,7.25
2022-11-10T19:55:11.682Z,7.18
2022-11-10T20:05:15.862Z,7.19
2022-11-10T20:15:18.588Z,7.21
2022-11-10T20:25:21.226Z,7.17
2022-11-10T20:35:23.876Z,7.12
2022-11-10T20:45:26.546Z,7.04
2022-11-10T20:55:52.072Z,7.05
2022-11-10T21:05:52.533Z,7.15
2022-11-10T21:15:56.214Z,7.25
2022-11-10T21:25:59.912Z,7.28
2022-11-10T21:36:04.676Z,7.26
2022-11-10T21:46:07.764Z,7.21
2022-11-10T21:56:11.300Z,7.15
2022-11-10T22:06:15.531Z,7.09
2022-11-10T22:16:39.035Z,7.02
2022-11-10T22:26:41.742Z,7.03
2022-11-10T22:36:45.011Z,6.95
2022-11-10T22:46:50.553Z,6.86
2022-11-10T22:56:53.159Z,6.79
2022-11-10T23:06:55.853Z,6.73
2022-11-10T23:16:58.522Z,6.65
2022-11-10T23:27:01.137Z,6.63
2022-11-10T23:37:03.900Z,6.59
2022-11-10T23:47:06.506Z,6.53
2022-11-10T23:57:09.092Z,6.46
